This is the latest recevied weather packets stored in our database for station/object GW1699. If no packets are shown the sender has not sent any weather packets the latest 10 day(s).
| Time | Temp. | Humidity | Pressure | Rain* | Wind** | Luminosity | Snow |
|---|---|---|---|---|---|---|---|
| 1777296286 | 13.33° C | 73% | 1019.6 hPa | 0 mm | - | - | - |
| 1777295563 | 12.22° C | 78% | 1019.3 hPa | 0 mm | - | - | - |
| 1777291238 | 5.56° C | 99% | 1019.9 hPa | 0 mm | - | - | - |
| 1777289802 | 5° C | 99% | 1019.9 hPa | 0 mm | - | - | - |
| 1777285834 | 4.44° C | 99% | 1018.9 hPa | 0 mm | - | - | - |
| 1777283679 | 4.44° C | 99% | 1018.2 hPa | 0 mm | - | - | - |
| 1777278630 | 6.11° C | 99% | 1017.2 hPa | 0 mm | - | - | - |
| 1777276462 | 6.11° C | 99% | 1017.2 hPa | 0 mm | - | - | - |
| 1777274670 | 6.67° C | 99% | 1017.6 hPa | 0 mm | - | - | - |
| 1777274309 | 6.67° C | 99% | 1017.6 hPa | 0 mm | - | - | - |
| 1777273609 | 6.67° C | 99% | 1017.6 hPa | 0 mm | - | - | - |
| 1777271065 | 7.22° C | 99% | 1017.9 hPa | 0 mm | - | - | - |
| 1777270356 | 7.78° C | 99% | 1018.2 hPa | 0 mm | - | - | - |
| 1777269979 | 7.78° C | 99% | 1018.2 hPa | 0 mm | - | - | - |
| 1777269623 | 7.78° C | 99% | 1018.2 hPa | 0 mm | - | - | - |
| 1777267126 | 8.33° C | 99% | 1018.2 hPa | 0 mm | - | - | - |
| 1777266733 | 8.89° C | 98% | 1017.9 hPa | 0 mm | - | - | - |
| 1777263508 | 9.44° C | 97% | 1017.9 hPa | 0 mm | - | - | - |
| 1777254872 | 11.67° C | 91% | 1016.9 hPa | 0 mm | - | - | - |
| 1777254135 | 11.67° C | 91% | 1016.9 hPa | 0 mm | - | - | - |
| 1777253771 | 11.67° C | 91% | 1016.9 hPa | 0 mm | - | - | - |
| 1777247674 | 15° C | 82% | 1015.9 hPa | 0 mm | - | - | - |
| 1777245158 | 18.33° C | 65% | 1015.5 hPa | 0 mm | - | - | - |
| 1777244805 | 18.33° C | 66% | 1015.5 hPa | 0 mm | - | - | - |
| 1777241198 | 18.89° C | 64% | 1015.2 hPa | 0 mm | - | - | - |
* Rain since midnight (hover to see other rain measurements)
** Current wind speed in m/s (hover to see current wind gust speed)